Skip Navigation Links Skip Navigation Links

Current Weather

Warsaw Muni, Warsaw, Ind.

For information only: do not use for flight planning or navigation.
Latest weather
Observation time Friday, December 3, 2021 4:15 AM EST
Local time Friday, December 3, 2021 4:42 AM EST
Flight conditions Visual Meteorological Conditions
Winds
Wind speed calm
Visibility 10 mi.
Sky condition
Ceiling 9,000 ft. overcast
Cloud layer overcast 9,000 ft.
Temperature 37°F
Dewpoint 34°F
Altimeter 30.06 in.Hg
Derived measurements
Relative humidity 87%
Wind chill 37°F
Density altitude -668 ft.
Remarks
Fully automated report.
Automated weather observing station with precipitation discriminator.
METAR KASW 030915Z AUTO 00000KT 10SM OVC090 03/01 A3006 RMK AO2

Settings

Location code

InnerDrive.Weather 4.0.6770.0 Release CLR 4.0.30319.42000
Copyright ©2018 Inner Drive Technology. All rights reserved. Portions Copyright ©1986-2018 David Braverman.

Find weather

Site navigation


Skip Navigation Links

Place info

Page info

PayPal - The safer, easier way to pay online!

Return home.

Copyright ©2021 Inner Drive Technology. Purveyors of fine, hand-crafted computer software. Page printed 2021-12-03T09:42:22 UTC.